sensor_id;sensor_type;location;lat;lon;timestamp;pressure;altitude;pressure_sealevel;temperature;humidity
56082;BME280;41957;52.060;5.138;2022-07-11T00:01:42;102532.25;;;22.33;55.60
56082;BME280;41957;52.060;5.138;2022-07-11T00:04:07;102531.41;;;22.32;55.91
56082;BME280;41957;52.060;5.138;2022-07-11T00:06:32;102531.53;;;22.29;55.79
56082;BME280;41957;52.060;5.138;2022-07-11T00:08:57;102534.16;;;22.31;55.67
56082;BME280;41957;52.060;5.138;2022-07-11T00:11:23;102536.88;;;22.29;55.96
56082;BME280;41957;52.060;5.138;2022-07-11T00:13:48;102531.53;;;22.29;55.83
56082;BME280;41957;52.060;5.138;2022-07-11T00:16:13;102526.91;;;22.33;55.73
56082;BME280;41957;52.060;5.138;2022-07-11T00:18:39;102525.16;;;22.32;55.77
56082;BME280;41957;52.060;5.138;2022-07-11T00:21:04;102523.34;;;22.32;55.54
56082;BME280;41957;52.060;5.138;2022-07-11T00:23:29;102526.03;;;22.32;55.72
56082;BME280;41957;52.060;5.138;2022-07-11T00:25:55;102526.91;;;22.33;55.69
56082;BME280;41957;52.060;5.138;2022-07-11T00:28:20;102524.22;;;22.33;55.67
56082;BME280;41957;52.060;5.138;2022-07-11T00:30:45;102514.50;;;22.30;55.93
56082;BME280;41957;52.060;5.138;2022-07-11T00:33:10;102513.59;;;22.31;55.66
56082;BME280;41957;52.060;5.138;2022-07-11T00:35:36;102518.88;;;22.33;55.58
56082;BME280;41957;52.060;5.138;2022-07-11T00:38:01;102530.56;;;22.30;55.57
56082;BME280;41957;52.060;5.138;2022-07-11T00:40:26;102530.53;;;22.32;55.88
56082;BME280;41957;52.060;5.138;2022-07-11T00:42:52;102520.69;;;22.32;55.73
56082;BME280;41957;52.060;5.138;2022-07-11T00:45:17;102525.16;;;22.32;55.54
56082;BME280;41957;52.060;5.138;2022-07-11T00:47:42;102522.53;;;22.30;55.79
56082;BME280;41957;52.060;5.138;2022-07-11T00:50:08;102528.72;;;22.32;55.86
56082;BME280;41957;52.060;5.138;2022-07-11T00:52:33;102508.34;;;22.28;55.87
56082;BME280;41957;52.060;5.138;2022-07-11T00:54:59;102511.81;;;22.30;55.85
56082;BME280;41957;52.060;5.138;2022-07-11T00:57:24;102510.94;;;22.30;55.78
56082;BME280;41957;52.060;5.138;2022-07-11T00:59:49;102512.75;;;22.29;55.63
56082;BME280;41957;52.060;5.138;2022-07-11T01:02:15;102512.84;;;22.28;55.72
56082;BME280;41957;52.060;5.138;2022-07-11T01:04:40;102513.75;;;22.27;56.01
56082;BME280;41957;52.060;5.138;2022-07-11T01:07:06;102508.34;;;22.28;56.05
56082;BME280;41957;52.060;5.138;2022-07-11T01:09:31;102513.72;;;22.28;55.70
56082;BME280;41957;52.060;5.138;2022-07-11T01:11:56;102508.41;;;22.27;55.95
56082;BME280;41957;52.060;5.138;2022-07-11T01:14:23;102514.63;;;22.27;55.69
56082;BME280;41957;52.060;5.138;2022-07-11T01:16:48;102516.44;;;22.27;55.91
56082;BME280;41957;52.060;5.138;2022-07-11T01:19:14;102516.44;;;22.27;55.78
56082;BME280;41957;52.060;5.138;2022-07-11T01:21:39;102516.44;;;22.27;55.85
56082;BME280;41957;52.060;5.138;2022-07-11T01:24:08;102516.44;;;22.27;55.80
56082;BME280;41957;52.060;5.138;2022-07-11T01:26:33;102518.19;;;22.28;55.90
56082;BME280;41957;52.060;5.138;2022-07-11T01:29:32;102517.31;;;22.27;55.87
56082;BME280;41957;52.060;5.138;2022-07-11T01:31:50;102512.84;;;22.28;55.82
56082;BME280;41957;52.060;5.138;2022-07-11T01:34:15;102525.28;;;22.29;56.08
56082;BME280;41957;52.060;5.138;2022-07-11T01:36:41;102518.31;;;22.25;55.91
56082;BME280;41957;52.060;5.138;2022-07-11T01:39:07;102519.19;;;22.25;55.86
56082;BME280;41957;52.060;5.138;2022-07-11T01:41:33;102521.78;;;22.27;55.81
56082;BME280;41957;52.060;5.138;2022-07-11T01:43:58;102521.78;;;22.27;56.00
56082;BME280;41957;52.060;5.138;2022-07-11T01:46:23;102528.09;;;22.26;56.10
56082;BME280;41957;52.060;5.138;2022-07-11T01:48:48;102528.09;;;22.26;55.81
56082;BME280;41957;52.060;5.138;2022-07-11T01:51:14;102524.56;;;22.25;55.99
56082;BME280;41957;52.060;5.138;2022-07-11T01:53:39;102521.91;;;22.24;55.88
56082;BME280;41957;52.060;5.138;2022-07-11T01:56:04;102526.28;;;22.26;55.95
56082;BME280;41957;52.060;5.138;2022-07-11T01:58:29;102522.78;;;22.24;55.94
56082;BME280;41957;52.060;5.138;2022-07-11T02:00:56;102525.47;;;22.24;55.99
56082;BME280;41957;52.060;5.138;2022-07-11T02:03:21;102515.66;;;22.25;56.14
56082;BME280;41957;52.060;5.138;2022-07-11T02:05:46;102521.00;;;22.25;55.95
56082;BME280;41957;52.060;5.138;2022-07-11T02:08:12;102518.31;;;22.25;55.83
56082;BME280;41957;52.060;5.138;2022-07-11T02:10:41;102510.34;;;22.23;56.03
56082;BME280;41957;52.060;5.138;2022-07-11T02:13:07;102511.28;;;22.22;56.10
56082;BME280;41957;52.060;5.138;2022-07-11T02:15:32;102505.03;;;22.21;56.21
56082;BME280;41957;52.060;5.138;2022-07-11T02:17:57;102505.97;;;22.20;56.17
56082;BME280;41957;52.060;5.138;2022-07-11T02:20:23;102500.59;;;22.20;56.24
56082;BME280;41957;52.060;5.138;2022-07-11T02:22:48;102507.69;;;22.21;56.17
56082;BME280;41957;52.060;5.138;2022-07-11T02:25:14;102511.31;;;22.20;56.31
56082;BME280;41957;52.060;5.138;2022-07-11T02:27:39;102512.25;;;22.19;56.31
56082;BME280;41957;52.060;5.138;2022-07-11T02:30:05;102514.94;;;22.19;56.38
56082;BME280;41957;52.060;5.138;2022-07-11T02:32:30;102510.44;;;22.20;56.41
56082;BME280;41957;52.060;5.138;2022-07-11T02:34:56;102504.34;;;22.16;56.44
56082;BME280;41957;52.060;5.138;2022-07-11T02:37:21;102507.78;;;22.20;56.59
56082;BME280;41957;52.060;5.138;2022-07-11T02:39:46;102498.88;;;22.19;56.35
56082;BME280;41957;52.060;5.138;2022-07-11T02:42:12;102510.44;;;22.20;56.62
56082;BME280;41957;52.060;5.138;2022-07-11T02:44:37;102505.09;;;22.20;56.66
56082;BME280;41957;52.060;5.138;2022-07-11T02:47:03;102502.47;;;22.18;56.68
56082;BME280;41957;52.060;5.138;2022-07-11T02:49:28;102499.00;;;22.16;56.74
56082;BME280;41957;52.060;5.138;2022-07-11T02:51:55;102500.72;;;22.17;56.92
56082;BME280;41957;52.060;5.138;2022-07-11T02:54:20;102504.34;;;22.16;56.81
56082;BME280;41957;52.060;5.138;2022-07-11T02:56:45;102506.13;;;22.16;56.81
56082;BME280;41957;52.060;5.138;2022-07-11T02:59:11;102502.47;;;22.18;56.73
56082;BME280;41957;52.060;5.138;2022-07-11T03:01:36;102505.31;;;22.14;56.71
56082;BME280;41957;52.060;5.138;2022-07-11T03:04:01;102509.72;;;22.16;56.80
56082;BME280;41957;52.060;5.138;2022-07-11T03:06:26;102510.66;;;22.14;56.70
56082;BME280;41957;52.060;5.138;2022-07-11T03:08:51;102502.63;;;22.14;56.81
56082;BME280;41957;52.060;5.138;2022-07-11T03:11:17;102506.16;;;22.14;56.57
56082;BME280;41957;52.060;5.138;2022-07-11T03:13:44;102507.13;;;22.13;56.82
56082;BME280;41957;52.060;5.138;2022-07-11T03:16:10;102506.16;;;22.14;56.69
56082;BME280;41957;52.060;5.138;2022-07-11T03:18:35;102514.22;;;22.14;56.88
56082;BME280;41957;52.060;5.138;2022-07-11T03:21:00;102516.06;;;22.12;56.86
56082;BME280;41957;52.060;5.138;2022-07-11T03:23:25;102509.78;;;22.13;56.91
56082;BME280;41957;52.060;5.138;2022-07-11T03:25:51;102515.19;;;22.12;57.05
56082;BME280;41957;52.060;5.138;2022-07-11T03:28:16;102508.97;;;22.11;56.77
56082;BME280;41957;52.060;5.138;2022-07-11T03:30:41;102514.31;;;22.11;56.86
56082;BME280;41957;52.060;5.138;2022-07-11T03:33:06;102517.00;;;22.11;56.86
56082;BME280;41957;52.060;5.138;2022-07-11T03:35:31;102512.72;;;22.07;56.94
56082;BME280;41957;52.060;5.138;2022-07-11T03:38:06;102518.81;;;22.11;56.79
56082;BME280;41957;52.060;5.138;2022-07-11T03:40:31;102519.75;;;22.10;56.93
56082;BME280;41957;52.060;5.138;2022-07-11T03:42:57;102507.34;;;22.07;56.89
56082;BME280;41957;52.060;5.138;2022-07-11T03:45:22;102511.72;;;22.10;56.94
56082;BME280;41957;52.060;5.138;2022-07-11T03:47:47;102512.63;;;22.09;56.82
56082;BME280;41957;52.060;5.138;2022-07-11T03:50:13;102512.63;;;22.09;57.06
56082;BME280;41957;52.060;5.138;2022-07-11T03:52:39;102510.91;;;22.08;56.77
56082;BME280;41957;52.060;5.138;2022-07-11T03:55:04;102515.41;;;22.07;57.13
56082;BME280;41957;52.060;5.138;2022-07-11T03:57:29;102504.69;;;22.07;56.91
56082;BME280;41957;52.060;5.138;2022-07-11T03:59:54;102508.16;;;22.09;56.81
56082;BME280;41957;52.060;5.138;2022-07-11T04:02:20;102505.47;;;22.09;56.81
56082;BME280;41957;52.060;5.138;2022-07-11T04:04:45;102509.91;;;22.10;56.90
56082;BME280;41957;52.060;5.138;2022-07-11T04:07:10;102512.63;;;22.09;56.94
56082;BME280;41957;52.060;5.138;2022-07-11T04:09:38;102507.28;;;22.09;56.96
56082;BME280;41957;52.060;5.138;2022-07-11T04:12:03;102504.69;;;22.07;56.97
56082;BME280;41957;52.060;5.138;2022-07-11T04:14:28;102507.34;;;22.07;56.89
56082;BME280;41957;52.060;5.138;2022-07-11T04:16:54;102519.81;;;22.08;56.70
56082;BME280;41957;52.060;5.138;2022-07-11T04:19:19;102517.13;;;22.08;56.70
56082;BME280;41957;52.060;5.138;2022-07-11T04:21:44;102516.25;;;22.08;56.70
56082;BME280;41957;52.060;5.138;2022-07-11T04:24:12;102514.44;;;22.08;56.78
56082;BME280;41957;52.060;5.138;2022-07-11T04:26:37;102518.00;;;22.09;56.73
56082;BME280;41957;52.060;5.138;2022-07-11T04:29:13;102516.25;;;22.08;56.87
56082;BME280;41957;52.060;5.138;2022-07-11T04:31:38;102517.19;;;22.07;56.96
56082;BME280;41957;52.060;5.138;2022-07-11T04:34:03;102517.19;;;22.07;56.92
56082;BME280;41957;52.060;5.138;2022-07-11T04:36:28;102512.75;;;22.06;56.98
56082;BME280;41957;52.060;5.138;2022-07-11T04:38:54;102507.41;;;22.06;56.82
56082;BME280;41957;52.060;5.138;2022-07-11T04:41:19;102508.28;;;22.06;56.83
56082;BME280;41957;52.060;5.138;2022-07-11T04:43:44;102504.69;;;22.07;56.78
56082;BME280;41957;52.060;5.138;2022-07-11T04:46:10;102510.06;;;22.06;56.92
56082;BME280;41957;52.060;5.138;2022-07-11T04:48:35;102507.47;;;22.04;56.75
56082;BME280;41957;52.060;5.138;2022-07-11T04:51:03;102512.75;;;22.06;56.78
56082;BME280;41957;52.060;5.138;2022-07-11T04:53:28;102510.03;;;22.07;56.86
56082;BME280;41957;52.060;5.138;2022-07-11T04:55:53;102511.84;;;22.07;56.84
56082;BME280;41957;52.060;5.138;2022-07-11T04:58:19;102512.72;;;22.07;56.86
56082;BME280;41957;52.060;5.138;2022-07-11T05:00:44;102513.63;;;22.06;57.05
56082;BME280;41957;52.060;5.138;2022-07-11T05:03:09;102515.44;;;22.06;57.09
56082;BME280;41957;52.060;5.138;2022-07-11T05:05:34;102514.53;;;22.07;56.92
56082;BME280;41957;52.060;5.138;2022-07-11T05:08:00;102519.88;;;22.07;56.69
56082;BME280;41957;52.060;5.138;2022-07-11T05:10:25;102523.47;;;22.06;56.77
56082;BME280;41957;52.060;5.138;2022-07-11T05:12:51;102528.91;;;22.04;57.00
56082;BME280;41957;52.060;5.138;2022-07-11T05:15:16;102530.63;;;22.05;57.09
56082;BME280;41957;52.060;5.138;2022-07-11T05:17:41;102536.94;;;22.04;56.95
56082;BME280;41957;52.060;5.138;2022-07-11T05:20:07;102543.03;;;22.08;57.01
56082;BME280;41957;52.060;5.138;2022-07-11T05:22:32;102547.56;;;22.06;56.90
56082;BME280;41957;52.060;5.138;2022-07-11T05:24:58;102545.75;;;22.06;56.92
56082;BME280;41957;52.060;5.138;2022-07-11T05:27:23;102548.44;;;22.06;57.00
56082;BME280;41957;52.060;5.138;2022-07-11T05:29:48;102549.50;;;22.02;57.06
56082;BME280;41957;52.060;5.138;2022-07-11T05:32:14;102556.56;;;22.05;56.84
56082;BME280;41957;52.060;5.138;2022-07-11T05:34:39;102553.88;;;22.05;56.99
56082;BME280;41957;52.060;5.138;2022-07-11T05:37:04;102553.88;;;22.05;57.04
56082;BME280;41957;52.060;5.138;2022-07-11T05:39:30;102554.75;;;22.05;56.96
56082;BME280;41957;52.060;5.138;2022-07-11T05:41:55;102556.47;;;22.06;57.14
56082;BME280;41957;52.060;5.138;2022-07-11T05:44:20;102563.72;;;22.04;57.15
56082;BME280;41957;52.060;5.138;2022-07-11T05:46:45;102547.88;;;21.98;57.22
56082;BME280;41957;52.060;5.138;2022-07-11T05:49:11;102564.81;;;21.98;57.40
56082;BME280;41957;52.060;5.138;2022-07-11T05:51:37;102560.34;;;21.99;57.56
56082;BME280;41957;52.060;5.138;2022-07-11T05:54:03;102563.94;;;21.98;58.08
56082;BME280;41957;52.060;5.138;2022-07-11T05:56:28;102563.13;;;21.96;58.48
56082;BME280;41957;52.060;5.138;2022-07-11T05:58:54;102558.59;;;21.98;59.30
56082;BME280;41957;52.060;5.138;2022-07-11T06:01:20;102552.41;;;21.96;59.77
56082;BME280;41957;52.060;5.138;2022-07-11T06:03:46;102558.59;;;21.98;59.87
56082;BME280;41957;52.060;5.138;2022-07-11T06:06:11;102559.50;;;21.97;59.85
56082;BME280;41957;52.060;5.138;2022-07-11T06:08:37;102559.47;;;21.98;59.82
56082;BME280;41957;52.060;5.138;2022-07-11T06:11:11;102564.75;;;22.00;60.01
56082;BME280;41957;52.060;5.138;2022-07-11T06:13:38;102559.50;;;21.97;59.61
56082;BME280;41957;52.060;5.138;2022-07-11T06:16:06;102564.75;;;22.00;59.79
56082;BME280;41957;52.060;5.138;2022-07-11T06:18:32;102557.66;;;21.99;59.63
56082;BME280;41957;52.060;5.138;2022-07-11T06:20:57;102560.22;;;22.02;59.49
56082;BME280;41957;52.060;5.138;2022-07-11T06:23:22;102560.44;;;21.96;59.33
56082;BME280;41957;52.060;5.138;2022-07-11T06:25:48;102559.38;;;22.00;59.54
56082;BME280;41957;52.060;5.138;2022-07-11T06:28:13;102562.41;;;21.91;59.36
56082;BME280;41957;52.060;5.138;2022-07-11T06:30:38;102558.75;;;21.93;59.19
56082;BME280;41957;52.060;5.138;2022-07-11T06:33:04;102547.78;;;22.01;59.01
56082;BME280;41957;52.060;5.138;2022-07-11T06:35:29;102558.28;;;22.06;58.93
56082;BME280;41957;52.060;5.138;2022-07-11T06:37:54;102556.47;;;22.06;59.11
56082;BME280;41957;52.060;5.138;2022-07-11T06:40:21;102560.19;;;22.04;58.96
56082;BME280;41957;52.060;5.138;2022-07-11T06:42:46;102557.41;;;22.05;59.30
56082;BME280;41957;52.060;5.138;2022-07-11T06:45:11;102561.84;;;22.06;59.05
56082;BME280;41957;52.060;5.138;2022-07-11T06:47:37;102552.88;;;22.07;59.16
56082;BME280;41957;52.060;5.138;2022-07-11T06:50:02;102561.72;;;22.09;59.24
56082;BME280;41957;52.060;5.138;2022-07-11T06:52:27;102560.97;;;22.06;59.20
56082;BME280;41957;52.060;5.138;2022-07-11T06:54:52;102558.13;;;22.10;58.97
56082;BME280;41957;52.060;5.138;2022-07-11T06:57:18;102549.16;;;22.11;58.93
56082;BME280;41957;52.060;5.138;2022-07-11T06:59:43;102561.84;;;22.06;58.98
56082;BME280;41957;52.060;5.138;2022-07-11T07:02:08;102557.50;;;22.04;59.03
56082;BME280;41957;52.060;5.138;2022-07-11T07:04:33;102554.94;;;22.01;59.13
56082;BME280;41957;52.060;5.138;2022-07-11T07:06:59;102560.44;;;21.96;59.57
56082;BME280;41957;52.060;5.138;2022-07-11T07:09:25;102554.16;;;21.97;59.53
56082;BME280;41957;52.060;5.138;2022-07-11T07:11:51;102552.38;;;21.97;59.48
56082;BME280;41957;52.060;5.138;2022-07-11T07:14:19;102553.25;;;21.98;59.43
56082;BME280;41957;52.060;5.138;2022-07-11T07:16:45;102563.88;;;21.99;59.22
56082;BME280;41957;52.060;5.138;2022-07-11T07:19:10;102559.47;;;21.98;59.30
56082;BME280;41957;52.060;5.138;2022-07-11T07:21:35;102564.75;;;22.00;59.21
56082;BME280;41957;52.060;5.138;2022-07-11T07:24:00;102561.19;;;21.99;59.27
56082;BME280;41957;52.060;5.138;2022-07-11T07:26:26;102562.06;;;22.00;59.24
56082;BME280;41957;52.060;5.138;2022-07-11T07:28:51;102569.19;;;22.01;59.07
56082;BME280;41957;52.060;5.138;2022-07-11T07:31:16;102565.56;;;22.02;59.06
56082;BME280;41957;52.060;5.138;2022-07-11T07:33:41;102573.56;;;22.04;59.12
56082;BME280;41957;52.060;5.138;2022-07-11T07:36:07;102571.78;;;22.03;59.03
56082;BME280;41957;52.060;5.138;2022-07-11T07:38:32;102570.81;;;22.05;59.02
56082;BME280;41957;52.060;5.138;2022-07-11T07:40:57;102568.13;;;22.05;59.14
56082;BME280;41957;52.060;5.138;2022-07-11T07:43:22;102570.81;;;22.05;59.01
56082;BME280;41957;52.060;5.138;2022-07-11T07:45:47;102570.81;;;22.05;59.17
56082;BME280;41957;52.060;5.138;2022-07-11T07:48:13;102569.00;;;22.06;59.01
56082;BME280;41957;52.060;5.138;2022-07-11T07:50:38;102569.88;;;22.06;59.00
56082;BME280;41957;52.060;5.138;2022-07-11T07:53:03;102566.31;;;22.06;59.02
56082;BME280;41957;52.060;5.138;2022-07-11T07:55:28;102573.38;;;22.08;58.87
56082;BME280;41957;52.060;5.138;2022-07-11T07:57:54;102574.25;;;22.09;58.76
56082;BME280;41957;52.060;5.138;2022-07-11T08:00:19;102590.38;;;22.07;59.08
56082;BME280;41957;52.060;5.138;2022-07-11T08:03:04;102592.19;;;22.07;59.02
56082;BME280;41957;52.060;5.138;2022-07-11T08:05:30;102583.25;;;22.06;59.05
56082;BME280;41957;52.060;5.138;2022-07-11T08:07:55;102590.38;;;22.07;59.07
56082;BME280;41957;52.060;5.138;2022-07-11T08:10:20;102579.72;;;22.06;58.93
56082;BME280;41957;52.060;5.138;2022-07-11T08:12:45;102583.25;;;22.06;59.04
56082;BME280;41957;52.060;5.138;2022-07-11T08:15:11;102584.16;;;22.07;59.10
56082;BME280;41957;52.060;5.138;2022-07-11T08:17:36;102577.91;;;22.06;58.96
56082;BME280;41957;52.060;5.138;2022-07-11T08:20:01;102579.72;;;22.06;59.11
56082;BME280;41957;52.060;5.138;2022-07-11T08:22:26;102592.19;;;22.07;58.83
56082;BME280;41957;52.060;5.138;2022-07-11T08:24:52;102586.75;;;22.08;59.04
56082;BME280;41957;52.060;5.138;2022-07-11T08:27:17;102578.81;;;22.07;58.85
56082;BME280;41957;52.060;5.138;2022-07-11T08:29:42;102582.34;;;22.07;58.73
56082;BME280;41957;52.060;5.138;2022-07-11T08:32:07;102592.13;;;22.08;58.76
56082;BME280;41957;52.060;5.138;2022-07-11T08:34:33;102585.03;;;22.07;58.76
56082;BME280;41957;52.060;5.138;2022-07-11T08:36:58;102583.22;;;22.08;58.67
56082;BME280;41957;52.060;5.138;2022-07-11T08:39:23;102593.00;;;22.09;58.68
56082;BME280;41957;52.060;5.138;2022-07-11T08:41:48;102578.81;;;22.07;58.75
56082;BME280;41957;52.060;5.138;2022-07-11T08:44:14;102574.31;;;22.07;58.75
56082;BME280;41957;52.060;5.138;2022-07-11T08:46:40;102573.44;;;22.07;58.66
56082;BME280;41957;52.060;5.138;2022-07-11T08:49:06;102566.28;;;22.07;58.99
56082;BME280;41957;52.060;5.138;2022-07-11T08:51:31;102567.19;;;22.06;58.77
56082;BME280;41957;52.060;5.138;2022-07-11T08:53:56;102566.28;;;22.07;58.70
56082;BME280;41957;52.060;5.138;2022-07-11T08:56:22;102570.69;;;22.08;58.67
56082;BME280;41957;52.060;5.138;2022-07-11T08:58:47;102576.06;;;22.08;58.76
56082;BME280;41957;52.060;5.138;2022-07-11T09:01:14;102576.06;;;22.08;58.76
56082;BME280;41957;52.060;5.138;2022-07-11T09:03:40;102571.56;;;22.09;58.73
56082;BME280;41957;52.060;5.138;2022-07-11T09:06:06;102568.84;;;22.10;58.58
56082;BME280;41957;52.060;5.138;2022-07-11T09:08:31;102568.72;;;22.13;58.51
56082;BME280;41957;52.060;5.138;2022-07-11T09:10:57;102568.72;;;22.13;58.61
56082;BME280;41957;52.060;5.138;2022-07-11T09:13:23;102563.41;;;22.12;58.77
56082;BME280;41957;52.060;5.138;2022-07-11T09:15:51;102571.53;;;22.10;58.86
56082;BME280;41957;52.060;5.138;2022-07-11T09:20:53;102566.22;;;22.09;58.79
56082;BME280;41957;52.060;5.138;2022-07-11T09:23:39;102567.97;;;22.10;58.67
56082;BME280;41957;52.060;5.138;2022-07-11T09:26:23;102578.69;;;22.10;58.82
56082;BME280;41957;52.060;5.138;2022-07-11T09:28:59;102570.56;;;22.11;58.78
56082;BME280;41957;52.060;5.138;2022-07-11T09:31:24;102569.72;;;22.11;58.80
56082;BME280;41957;52.060;5.138;2022-07-11T09:33:58;102567.91;;;22.11;58.78
56082;BME280;41957;52.060;5.138;2022-07-11T09:36:33;102567.91;;;22.11;58.85
56082;BME280;41957;52.060;5.138;2022-07-11T09:38:59;102570.56;;;22.11;58.77
56082;BME280;41957;52.060;5.138;2022-07-11T09:41:26;102575.94;;;22.11;58.99
56082;BME280;41957;52.060;5.138;2022-07-11T09:43:51;102573.25;;;22.11;58.90
56082;BME280;41957;52.060;5.138;2022-07-11T09:46:23;102570.56;;;22.11;58.85
56082;BME280;41957;52.060;5.138;2022-07-11T09:48:48;102576.75;;;22.13;58.86
56082;BME280;41957;52.060;5.138;2022-07-11T09:51:18;102566.97;;;22.12;58.96
56082;BME280;41957;52.060;5.138;2022-07-11T09:53:54;102565.19;;;22.13;58.99
56082;BME280;41957;52.060;5.138;2022-07-11T09:56:23;102566.03;;;22.13;59.41
56082;BME280;41957;52.060;5.138;2022-07-11T09:58:50;102571.41;;;22.13;59.16
56082;BME280;41957;52.060;5.138;2022-07-11T10:01:22;102572.31;;;22.12;59.15
56082;BME280;41957;52.060;5.138;2022-07-11T10:03:48;102571.41;;;22.13;59.04
56082;BME280;41957;52.060;5.138;2022-07-11T10:06:13;102571.31;;;22.15;59.04
56082;BME280;41957;52.060;5.138;2022-07-11T10:08:39;102570.47;;;22.14;59.34
56082;BME280;41957;52.060;5.138;2022-07-11T10:11:04;102578.44;;;22.16;59.29
56082;BME280;41957;52.060;5.138;2022-07-11T10:13:29;102581.16;;;22.14;59.41
56082;BME280;41957;52.060;5.138;2022-07-11T10:15:54;102583.81;;;22.16;59.53
56082;BME280;41957;52.060;5.138;2022-07-11T10:18:31;102577.63;;;22.14;59.61
56082;BME280;41957;52.060;5.138;2022-07-11T10:21:02;102588.19;;;22.18;59.41
56082;BME280;41957;52.060;5.138;2022-07-11T10:28:58;102582.19;;;22.35;58.53
56082;BME280;41957;52.060;5.138;2022-07-11T10:31:25;102580.63;;;22.52;57.76
56082;BME280;41957;52.060;5.138;2022-07-11T10:33:59;102575.94;;;22.58;57.53
56082;BME280;41957;52.060;5.138;2022-07-11T10:36:26;102577.03;;;22.75;56.81
56082;BME280;41957;52.060;5.138;2022-07-11T10:41:36;102578.47;;;22.61;57.43
56082;BME280;41957;52.060;5.138;2022-07-11T10:44:01;102579.81;;;22.28;58.40
56082;BME280;41957;52.060;5.138;2022-07-11T10:46:26;102583.72;;;22.19;58.94
56082;BME280;41957;52.060;5.138;2022-07-11T10:48:59;102579.34;;;22.16;59.25
56082;BME280;41957;52.060;5.138;2022-07-11T10:56:51;102582.81;;;22.18;58.93
56082;BME280;41957;52.060;5.138;2022-07-11T10:59:18;102577.47;;;22.18;59.09
56082;BME280;41957;52.060;5.138;2022-07-11T11:04:47;102581.94;;;22.18;58.94
56082;BME280;41957;52.060;5.138;2022-07-11T11:09:57;102586.41;;;22.19;58.99
56082;BME280;41957;52.060;5.138;2022-07-11T11:17:51;102576.59;;;22.18;59.09
56082;BME280;41957;52.060;5.138;2022-07-11T11:20:31;102581.91;;;22.19;59.21
56082;BME280;41957;52.060;5.138;2022-07-11T11:23:09;102589.94;;;22.19;59.33
56082;BME280;41957;52.060;5.138;2022-07-11T11:25:34;102589.00;;;22.20;58.99
56082;BME280;41957;52.060;5.138;2022-07-11T11:28:00;102593.50;;;22.20;59.18
56082;BME280;41957;52.060;5.138;2022-07-11T11:30:27;102592.56;;;22.21;59.22
56082;BME280;41957;52.060;5.138;2022-07-11T11:32:52;102587.19;;;22.21;59.15
56082;BME280;41957;52.060;5.138;2022-07-11T11:35:17;102584.50;;;22.21;59.22
56082;BME280;41957;52.060;5.138;2022-07-11T11:37:43;102586.28;;;22.22;59.28
56082;BME280;41957;52.060;5.138;2022-07-11T11:40:08;102583.59;;;22.22;59.29
56082;BME280;41957;52.060;5.138;2022-07-11T11:42:33;102579.97;;;22.23;59.23
56082;BME280;41957;52.060;5.138;2022-07-11T11:45:01;102575.50;;;22.24;59.27
56082;BME280;41957;52.060;5.138;2022-07-11T11:47:30;102577.25;;;22.25;58.96
56082;BME280;41957;52.060;5.138;2022-07-11T11:49:56;102568.31;;;22.24;59.08
56082;BME280;41957;52.060;5.138;2022-07-11T11:52:21;102568.28;;;22.26;59.07
56082;BME280;41957;52.060;5.138;2022-07-11T11:54:52;102559.41;;;22.24;59.14
56082;BME280;41957;52.060;5.138;2022-07-11T11:57:19;102568.41;;;22.23;59.36
56082;BME280;41957;52.060;5.138;2022-07-11T11:59:45;102560.47;;;22.19;59.32
56082;BME280;41957;52.060;5.138;2022-07-11T12:02:10;102562.19;;;22.22;59.28
56082;BME280;41957;52.060;5.138;2022-07-11T12:04:35;102570.13;;;22.24;59.08
56082;BME280;41957;52.060;5.138;2022-07-11T12:07:02;102564.78;;;22.24;59.37
56082;BME280;41957;52.060;5.138;2022-07-11T12:09:28;102568.28;;;22.26;59.30
56082;BME280;41957;52.060;5.138;2022-07-11T12:12:11;102572.78;;;22.25;59.30
56082;BME280;41957;52.060;5.138;2022-07-11T12:14:56;102575.38;;;22.27;59.15
56082;BME280;41957;52.060;5.138;2022-07-11T12:17:25;102574.47;;;22.28;59.31
56082;BME280;41957;52.060;5.138;2022-07-11T12:19:50;102572.66;;;22.28;59.35
56082;BME280;41957;52.060;5.138;2022-07-11T12:22:16;102567.28;;;22.28;59.21
56082;BME280;41957;52.060;5.138;2022-07-11T12:24:45;102574.25;;;22.32;59.04
56082;BME280;41957;52.060;5.138;2022-07-11T12:27:10;102570.00;;;22.27;59.02
56082;BME280;41957;52.060;5.138;2022-07-11T12:29:39;102578.00;;;22.28;59.26
56082;BME280;41957;52.060;5.138;2022-07-11T12:32:11;102573.53;;;22.29;59.25
56082;BME280;41957;52.060;5.138;2022-07-11T12:37:03;102572.56;;;22.30;59.23
56082;BME280;41957;52.060;5.138;2022-07-11T12:39:29;102573.53;;;22.29;59.05
56082;BME280;41957;52.060;5.138;2022-07-11T12:41:55;102567.16;;;22.31;59.35
56082;BME280;41957;52.060;5.138;2022-07-11T12:44:24;102561.72;;;22.33;59.17
56082;BME280;41957;52.060;5.138;2022-07-11T12:47:09;102564.28;;;22.36;59.07
56082;BME280;41957;52.060;5.138;2022-07-11T12:49:34;102560.88;;;22.32;59.07
56082;BME280;41957;52.060;5.138;2022-07-11T12:51:59;102562.72;;;22.30;59.18
56082;BME280;41957;52.060;5.138;2022-07-11T12:54:32;102558.38;;;22.28;59.31
56082;BME280;41957;52.060;5.138;2022-07-11T12:56:58;102558.31;;;22.29;59.45
56082;BME280;41957;52.060;5.138;2022-07-11T12:59:24;102551.03;;;22.33;59.22
56082;BME280;41957;52.060;5.138;2022-07-11T13:02:09;102557.31;;;22.32;59.21
56082;BME280;41957;52.060;5.138;2022-07-11T13:07:17;102551.09;;;22.31;59.56
56082;BME280;41957;52.060;5.138;2022-07-11T13:10:01;102547.47;;;22.32;59.29
56082;BME280;41957;52.060;5.138;2022-07-11T13:12:27;102547.47;;;22.32;59.46
56082;BME280;41957;52.060;5.138;2022-07-11T13:14:56;102552.84;;;22.32;59.67
56082;BME280;41957;52.060;5.138;2022-07-11T13:17:34;102549.28;;;22.32;59.61
56082;BME280;41957;52.060;5.138;2022-07-11T13:20:00;102549.22;;;22.33;59.62